Time;durP1;ratioP1;P1;durP2;ratioP2;P2;SDS_P1;SDS_P2;PMS_P1;PMS_P2;Temp;Humidity;BMP_temperature;BMP_pressure;BME280_temperature;BME280_humidity;BME280_pressure;Samples;Min_cycle;Max_cycle;Signal;HPM_P1;HPM_P2
2023/06/19 00:00:42;;;;;;;10.25;8.08;;;;;;;12.07;72.98;99558.05;1697668;83;20981;-60
2023/06/19 00:03:10;;;;;;;9.93;7.80;;;;;;;12.05;73.08;99557.75;1699496;83;21097;-61
2023/06/19 00:05:36;;;;;;;10.50;8.30;;;;;;;12.00;73.04;99561.08;1671969;86;21049;-60
2023/06/19 00:08:05;;;;;;;10.90;8.45;;;;;;;11.95;73.17;99563.11;1698655;83;20990;-60
2023/06/19 00:10:32;;;;;;;11.00;8.75;;;;;;;11.89;73.26;99562.14;1699203;83;21131;-60
2023/06/19 00:12:58;;;;;;;9.33;7.75;;;;;;;11.79;73.38;99557.39;1701481;83;20966;-60
2023/06/19 00:15:24;;;;;;;10.93;7.90;;;;;;;11.71;73.42;99559.58;1672473;84;21065;-60
2023/06/19 00:17:51;;;;;;;8.38;7.40;;;;;;;11.63;73.43;99564.38;1731942;81;21097;-60
2023/06/19 00:20:17;;;;;;;9.90;8.10;;;;;;;11.60;73.66;99565.39;1742528;81;21529;-60
2023/06/19 00:22:44;;;;;;;10.98;8.93;;;;;;;11.55;73.61;99561.33;1744496;81;20998;-60
2023/06/19 00:25:10;;;;;;;12.95;10.05;;;;;;;11.55;73.99;99563.95;1745658;81;21081;-60
2023/06/19 00:27:36;;;;;;;13.30;10.00;;;;;;;11.52;74.12;99573.27;1747360;81;21096;-60
2023/06/19 00:30:04;;;;;;;12.03;9.15;;;;;;;11.49;74.41;99567.73;1746818;81;21045;-59
2023/06/19 00:32:31;;;;;;;11.33;8.60;;;;;;;11.45;74.46;99565.36;1745743;81;21129;-60
2023/06/19 00:34:57;;;;;;;12.80;9.13;;;;;;;11.42;74.43;99568.98;1745649;81;20995;-61
2023/06/19 00:40:00;;;;;;;9.83;8.08;;;;;;;11.41;74.51;99564.22;1779769;78;21132;-65
2023/06/19 00:42:33;;;;;;;11.70;9.68;;;;;;;11.41;74.51;99564.22;1788101;79;21072;-65
2023/06/19 00:44:57;;;;;;;10.55;8.98;;;;;;;11.43;74.71;99558.45;1792402;78;20977;-65
2023/06/19 00:47:25;;;;;;;14.93;10.05;;;;;;;11.46;74.81;99564.45;1788752;79;21583;-65
2023/06/19 00:49:52;;;;;;;11.90;9.50;;;;;;;11.40;74.67;99559.92;1794488;79;21045;-65
2023/06/19 00:52:18;;;;;;;14.83;12.10;;;;;;;11.39;74.84;99563.91;1791770;78;21041;-65
2023/06/19 00:54:45;;;;;;;17.00;11.05;;;;;;;11.37;74.87;99564.02;1793501;79;21046;-65
2023/06/19 00:57:11;;;;;;;11.85;9.98;;;;;;;11.36;75.00;99562.30;1792194;79;21017;-65
2023/06/19 00:59:38;;;;;;;16.70;10.72;;;;;;;11.35;75.15;99555.40;1794699;79;21049;-65
2023/06/19 01:02:05;;;;;;;11.50;10.30;;;;;;;11.36;75.32;99551.84;1791057;79;21098;-65
2023/06/19 01:04:31;;;;;;;11.35;10.18;;;;;;;11.39;75.26;99558.69;1791957;79;21117;-65
2023/06/19 01:07:09;;;;;;;15.20;10.75;;;;;;;11.38;75.43;99557.84;1774498;79;20994;-65
2023/06/19 01:09:38;;;;;;;11.25;9.98;;;;;;;11.38;75.49;99552.62;1792272;79;20951;-65
2023/06/19 01:12:10;;;;;;;10.72;8.43;;;;;;;11.34;75.37;99558.95;1791909;79;21544;-65
2023/06/19 01:14:48;;;;;;;10.30;8.80;;;;;;;11.28;75.24;99564.47;1755205;81;20976;-65
2023/06/19 01:17:15;;;;;;;12.47;10.35;;;;;;;11.21;75.50;99561.82;1753385;80;21065;-65
2023/06/19 01:19:44;;;;;;;11.88;9.40;;;;;;;11.18;75.68;99561.98;1729004;81;21547;-65
2023/06/19 01:22:10;;;;;;;15.00;11.63;;;;;;;11.15;75.93;99558.23;1756556;80;21058;-65
2023/06/19 01:24:38;;;;;;;10.98;9.75;;;;;;;11.17;76.14;99561.58;1731589;80;21449;-65
2023/06/19 01:27:07;;;;;;;16.77;11.40;;;;;;;11.16;76.15;99562.52;1755449;80;21068;-65
2023/06/19 01:29:34;;;;;;;12.50;10.00;;;;;;;11.16;76.24;99569.05;1739656;82;21111;-65
2023/06/19 01:32:07;;;;;;;14.00;12.00;;;;;;;11.14;76.36;99556.52;1725756;81;21562;-65
2023/06/19 01:34:35;;;;;;;10.98;8.80;;;;;;;11.14;76.43;99559.13;1728226;81;21658;-65
2023/06/19 01:37:01;;;;;;;;;;;;;;;11.14;76.32;99556.52;1757349;80;21045;-65
2023/06/19 01:39:33;;;;;;;10.58;8.28;;;;;;;11.10;76.39;99555.00;1714655;82;20214;-65
2023/06/19 01:41:59;;;;;;;11.18;9.18;;;;;;;11.08;76.28;99551.62;1682762;83;21077;-65
2023/06/19 01:44:26;;;;;;;8.40;7.53;;;;;;;11.04;76.35;99551.41;1718992;82;20986;-65
2023/06/19 01:46:52;;;;;;;9.93;8.93;;;;;;;11.03;76.23;99558.37;1723621;82;21639;-65
2023/06/19 01:49:19;;;;;;;15.00;11.40;;;;;;;10.98;76.22;99559.94;1680162;83;21580;-65
2023/06/19 01:51:46;;;;;;;10.53;9.20;;;;;;;10.98;76.49;99559.94;1690436;83;21089;-65
2023/06/19 01:54:12;;;;;;;11.05;9.20;;;;;;;10.96;76.68;99561.78;1722502;82;21074;-65
2023/06/19 01:56:39;;;;;;;9.78;8.35;;;;;;;10.97;76.79;99556.09;1724202;82;21607;-65
2023/06/19 01:59:05;;;;;;;10.03;7.90;;;;;;;10.95;76.72;99556.18;1723491;82;21109;-65
2023/06/19 02:01:32;;;;;;;11.63;9.50;;;;;;;10.91;76.64;99557.25;1721938;82;21038;-65
2023/06/19 02:03:59;;;;;;;9.28;8.38;;;;;;;10.86;76.61;99557.94;1723897;82;20951;-65
2023/06/19 02:06:27;;;;;;;11.40;9.25;;;;;;;10.84;76.71;99551.97;1722796;82;21082;-65
2023/06/19 02:08:53;;;;;;;11.20;9.35;;;;;;;10.84;76.81;99551.97;1721875;82;21062;-65
2023/06/19 02:11:20;;;;;;;10.23;8.05;;;;;;;10.82;76.73;99548.58;1724518;82;21058;-65
2023/06/19 02:13:52;;;;;;;13.35;8.45;;;;;;;10.81;76.73;99544.30;1722974;82;21089;-65
2023/06/19 02:16:16;;;;;;;13.72;10.18;;;;;;;10.79;77.02;99553.97;1695938;83;20999;-65
2023/06/19 02:18:42;;;;;;;10.68;8.63;;;;;;;10.75;77.21;99547.19;1713569;83;21011;-65
2023/06/19 02:21:09;;;;;;;12.75;11.40;;;;;;;10.71;77.43;99550.89;1714425;82;21090;-65
2023/06/19 02:23:35;;;;;;;11.00;9.90;;;;;;;10.71;77.68;99550.89;1716964;82;21124;-65
2023/06/19 02:26:03;;;;;;;11.80;10.05;;;;;;;10.72;77.76;99542.13;1723347;82;21085;-64
2023/06/19 02:28:29;;;;;;;;;;;;;;;10.74;77.71;99540.29;1693983;84;21146;-65
2023/06/19 02:30:55;;;;;;;9.45;8.48;;;;;;;10.77;77.92;99540.13;1714736;83;20150;-65
2023/06/19 02:33:21;;;;;;;12.25;10.50;;;;;;;10.79;77.83;99539.59;1686005;83;21085;-65
2023/06/19 02:35:48;;;;;;;10.08;9.00;;;;;;;10.81;77.81;99539.07;1711862;83;21549;-64
2023/06/19 02:38:18;;;;;;;12.47;10.72;;;;;;;10.82;77.83;99541.22;1712899;83;21120;-64
2023/06/19 02:40:44;;;;;;;10.13;8.95;;;;;;;10.82;77.80;99542.05;1746638;82;21050;-65
2023/06/19 02:43:11;;;;;;;12.98;9.40;;;;;;;10.79;77.72;99538.30;1755200;82;21514;-64
2023/06/19 02:45:37;;;;;;;11.08;8.80;;;;;;;10.77;77.98;99545.36;1755079;81;21589;-65
2023/06/19 02:48:05;;;;;;;12.15;9.03;;;;;;;10.77;78.18;99540.59;1724584;82;21037;-64
2023/06/19 02:50:32;;;;;;;13.60;12.10;;;;;;;10.77;78.25;99536.68;1726003;82;21149;-64
2023/06/19 02:52:58;;;;;;;11.38;9.20;;;;;;;10.80;78.90;99534.75;1717604;82;21109;-64
2023/06/19 02:55:25;;;;;;;13.28;8.43;;;;;;;10.86;78.89;99531.81;1789588;79;21571;-64
2023/06/19 02:57:52;;;;;;;9.20;7.75;;;;;;;10.91;78.83;99527.20;1791229;79;21409;-64
2023/06/19 03:00:18;;;;;;;9.85;8.78;;;;;;;10.97;78.96;99524.73;1792043;78;21056;-64
2023/06/19 03:02:45;;;;;;;9.60;8.70;;;;;;;11.04;79.02;99531.81;1790725;79;22278;-64
2023/06/19 03:05:15;;;;;;;9.30;8.38;;;;;;;11.09;78.97;99529.78;1791275;79;21536;-64
2023/06/19 03:07:41;;;;;;;9.20;8.20;;;;;;;11.14;79.13;99527.77;1752330;82;21086;-64
2023/06/19 03:10:09;;;;;;;11.83;8.70;;;;;;;11.22;79.37;99526.91;1743532;81;21045;-64
2023/06/19 03:12:39;;;;;;;8.63;7.75;;;;;;;11.30;79.56;99524.73;1750432;80;21050;-65
2023/06/19 03:15:04;;;;;;;9.05;8.15;;;;;;;11.43;79.67;99530.16;1723617;82;20998;-65
2023/06/19 03:17:30;;;;;;;20.55;9.85;;;;;;;11.52;79.50;99522.28;1746032;82;20998;-65
2023/06/19 03:19:57;;;;;;;23.38;10.20;;;;;;;11.61;79.58;99521.77;1714148;82;21285;-65
2023/06/19 03:22:23;;;;;;;13.30;8.95;;;;;;;11.73;79.84;99521.09;1752295;82;21154;-64
2023/06/19 03:24:50;;;;;;;9.98;8.75;;;;;;;11.86;79.95;99523.44;1724855;82;21034;-65
2023/06/19 03:27:16;;;;;;;11.95;9.35;;;;;;;11.96;79.63;99520.30;1749891;80;21027;-65
2023/06/19 03:29:43;;;;;;;11.80;9.00;;;;;;;12.02;79.67;99526.05;1725277;82;21081;-65
2023/06/19 03:32:09;;;;;;;12.55;9.18;;;;;;;12.12;79.80;99525.52;1751105;82;21652;-64
2023/06/19 03:34:36;;;;;;;13.68;9.73;;;;;;;12.22;79.89;99526.23;1752469;80;21124;-64
2023/06/19 03:37:04;;;;;;;11.10;9.70;;;;;;;12.31;80.19;99520.45;1753407;80;21499;-64
2023/06/19 03:39:30;;;;;;;15.55;10.32;;;;;;;12.44;80.25;99522.38;1753689;80;21089;-64
2023/06/19 03:41:57;;;;;;;15.43;11.10;;;;;;;12.58;80.42;99523.73;1748617;80;20997;-64
2023/06/19 03:44:23;;;;;;;15.43;10.55;;;;;;;12.73;80.46;99521.50;1724198;82;21121;-65
2023/06/19 03:46:51;;;;;;;11.48;10.05;;;;;;;12.89;80.61;99520.60;1726379;82;20986;-64
2023/06/19 03:49:17;;;;;;;;;;;;;;;13.05;80.68;99525.74;1723638;82;21108;-65
2023/06/19 03:51:44;;;;;;;28.32;11.38;;;;;;;13.17;80.84;99525.86;1721318;82;20185;-64
2023/06/19 03:54:15;;;;;;;11.33;9.20;;;;;;;13.36;80.73;99519.49;1755821;80;21450;-64
2023/06/19 03:56:38;;;;;;;12.05;9.25;;;;;;;13.36;80.73;99519.49;1724961;82;21078;-64
2023/06/19 03:59:07;;;;;;;11.05;9.95;;;;;;;13.41;80.58;99523.98;1709948;82;21055;-65
2023/06/19 04:01:33;;;;;;;13.15;9.50;;;;;;;13.54;81.11;99526.23;1717939;82;21197;-64
2023/06/19 04:04:00;;;;;;;16.47;9.10;;;;;;;13.54;81.11;99526.23;1751622;81;21074;-64
2023/06/19 04:06:26;;;;;;;10.95;9.30;;;;;;;13.65;81.18;99526.39;1752824;82;21510;-64
2023/06/19 04:08:52;;;;;;;10.85;9.75;;;;;;;13.78;81.33;99519.92;1722283;82;21065;-64
2023/06/19 04:11:22;;;;;;;10.72;8.70;;;;;;;13.95;81.50;99523.22;1735045;82;21032;-65
2023/06/19 04:13:48;;;;;;;13.83;9.60;;;;;;;14.13;81.41;99525.14;1721029;82;21576;-64
2023/06/19 04:16:15;;;;;;;12.95;9.15;;;;;;;14.29;81.61;99517.95;1719734;82;21569;-65
2023/06/19 04:18:41;;;;;;;12.68;9.18;;;;;;;14.50;81.55;99527.49;1722676;82;21031;-64
2023/06/19 04:21:07;;;;;;;13.98;9.73;;;;;;;14.70;81.70;99531.44;1723721;82;21043;-64
2023/06/19 04:23:33;;;;;;;13.70;10.23;;;;;;;14.91;81.67;99534.42;1718790;82;21243;-64
2023/06/19 04:25:59;;;;;;;12.88;9.35;;;;;;;15.05;81.54;99537.42;1722781;82;21038;-64
2023/06/19 04:28:26;;;;;;;13.30;9.73;;;;;;;15.18;81.44;99539.10;1721739;81;21024;-64
2023/06/19 04:30:59;;;;;;;11.38;10.25;;;;;;;15.31;81.55;99533.81;1755982;80;21124;-64
2023/06/19 04:33:21;;;;;;;12.23;9.50;;;;;;;15.45;81.45;99544.20;1730614;81;21075;-65
2023/06/19 04:35:48;;;;;;;18.20;14.00;;;;;;;15.60;81.73;99544.07;1755846;80;21045;-64
2023/06/19 04:38:14;;;;;;;17.65;12.70;;;;;;;15.80;81.81;99548.81;1753857;80;21045;-65
2023/06/19 04:40:43;;;;;;;17.23;13.60;;;;;;;15.97;81.74;99544.13;1751385;80;21627;-64
2023/06/19 04:43:10;;;;;;;15.18;12.82;;;;;;;16.14;81.85;99546.37;1751478;80;21021;-65
2023/06/19 04:45:39;;;;;;;17.25;11.25;;;;;;;16.31;81.77;99548.59;1725971;82;21081;-65
2023/06/19 04:48:05;;;;;;;12.00;10.65;;;;;;;16.48;81.66;99547.83;1723902;82;21070;-65
2023/06/19 04:50:31;;;;;;;11.55;9.50;;;;;;;16.65;81.68;99549.20;1722827;82;21008;-64
2023/06/19 04:52:58;;;;;;;16.15;9.95;;;;;;;16.83;81.77;99541.72;1753982;81;21066;-65
2023/06/19 04:55:25;;;;;;;11.22;9.30;;;;;;;17.02;81.62;99543.31;1741187;81;21069;-64
2023/06/19 04:57:51;;;;;;;14.90;9.23;;;;;;;17.19;81.43;99545.48;1751585;81;21023;-65
2023/06/19 05:00:19;;;;;;;8.68;7.87;;;;;;;17.36;81.36;99548.61;1753377;81;21072;-65
2023/06/19 05:02:47;;;;;;;8.45;7.65;;;;;;;17.54;81.55;99547.19;1754442;81;21057;-64
2023/06/19 05:05:14;;;;;;;8.28;6.85;;;;;;;17.72;81.32;99544.04;1724358;82;21072;-64
2023/06/19 05:07:40;;;;;;;8.63;6.70;;;;;;;17.91;81.19;99546.92;1754008;81;21058;-65
2023/06/19 05:10:08;;;;;;;13.00;7.10;;;;;;;18.11;81.03;99550.09;1753449;81;21114;-65
2023/06/19 05:12:35;;;;;;;13.75;5.92;;;;;;;18.28;80.75;99552.68;1755773;82;21008;-65
2023/06/19 05:15:06;;;;;;;9.85;6.75;;;;;;;18.46;80.75;99553.48;1721669;82;21137;-65
2023/06/19 05:17:32;;;;;;;7.45;5.62;;;;;;;18.64;80.54;99552.42;1721800;82;21065;-65
2023/06/19 05:19:59;;;;;;;6.60;5.90;;;;;;;18.81;80.30;99551.87;1722662;82;21550;-65
2023/06/19 05:22:26;;;;;;;9.50;6.53;;;;;;;18.95;80.06;99550.22;1754596;82;21597;-65
2023/06/19 05:24:53;;;;;;;7.78;6.65;;;;;;;19.15;80.14;99554.30;1750161;81;21095;-65
2023/06/19 05:27:19;;;;;;;10.47;6.47;;;;;;;19.29;79.85;99547.33;1754608;81;21125;-65
2023/06/19 05:29:46;;;;;;;13.90;7.20;;;;;;;19.44;79.90;99555.28;1754601;82;21658;-65
2023/06/19 05:32:16;;;;;;;19.65;6.10;;;;;;;19.62;79.61;99552.83;1754719;81;21067;-65
2023/06/19 05:34:45;;;;;;;12.30;5.30;;;;;;;19.79;79.33;99550.55;1753633;81;21133;-65
2023/06/19 05:37:11;;;;;;;12.35;5.15;;;;;;;19.95;78.98;99560.63;1750076;82;21567;-65
2023/06/19 05:39:39;;;;;;;4.53;3.80;;;;;;;20.13;78.79;99557.16;1724978;82;21065;-65
2023/06/19 05:42:07;;;;;;;8.85;4.03;;;;;;;20.32;78.16;99561.64;1720099;82;21126;-65
2023/06/19 05:44:35;;;;;;;7.65;4.47;;;;;;;20.48;78.09;99552.31;1724296;82;21125;-65
2023/06/19 05:47:01;;;;;;;5.60;4.80;;;;;;;20.67;77.57;99561.62;1750998;80;20971;-65
2023/06/19 05:49:29;;;;;;;5.97;4.50;;;;;;;20.85;77.31;99555.59;1751747;80;21526;-65
2023/06/19 05:51:58;;;;;;;7.17;4.78;;;;;;;20.98;77.23;99562.77;1754366;80;21482;-64
2023/06/19 05:54:23;;;;;;;4.72;4.08;;;;;;;21.14;76.85;99560.31;1724874;82;21052;-65
2023/06/19 05:56:54;;;;;;;4.90;4.03;;;;;;;21.31;76.66;99571.17;1745693;80;21081;-68
2023/06/19 05:59:27;;;;;;;9.80;3.85;;;;;;;21.48;76.06;99567.78;1746582;80;21097;-67
2023/06/19 06:02:03;;;;;;;4.37;3.98;;;;;;;21.62;75.44;99574.44;1726120;81;21505;-69
2023/06/19 06:04:38;;;;;;;7.70;3.33;;;;;;;21.76;74.70;99567.80;1748397;80;21520;-67
2023/06/19 06:07:08;;;;;;;6.60;3.55;;;;;;;21.86;74.27;99580.05;1753077;80;21060;-68
2023/06/19 06:09:41;;;;;;;8.38;3.42;;;;;;;21.98;73.90;99578.02;1719965;82;21129;-67
2023/06/19 06:12:17;;;;;;;6.13;3.43;;;;;;;22.10;73.56;99575.52;1747994;81;21167;-68
2023/06/19 06:14:49;;;;;;;4.85;3.37;;;;;;;22.28;73.33;99578.21;1722243;80;21069;-69
2023/06/19 06:17:25;;;;;;;3.67;3.33;;;;;;;22.41;72.35;99574.36;1699568;82;21480;-68
2023/06/19 06:19:55;;;;;;;3.85;3.45;;;;;;;22.55;71.91;99580.47;1727416;82;21064;-69
2023/06/19 06:22:27;;;;;;;3.40;2.77;;;;;;;22.67;71.42;99571.75;1710202;82;21599;-68
2023/06/19 06:25:01;;;;;;;10.88;3.77;;;;;;;22.82;70.79;99572.85;1703628;83;21092;-67
2023/06/19 06:27:35;;;;;;;9.53;3.33;;;;;;;22.91;70.10;99575.94;1708209;82;21095;-68
2023/06/19 06:30:04;;;;;;;8.25;3.70;;;;;;;23.01;69.78;99576.69;1732135;82;21077;-67
2023/06/19 06:32:38;;;;;;;4.03;3.25;;;;;;;23.15;69.31;99577.12;1747780;81;21636;-66
2023/06/19 06:37:46;;;;;;;3.60;3.22;;;;;;;23.39;68.62;99571.94;1610454;87;22016;-67
2023/06/19 06:40:18;;;;;;;50.15;4.78;;;;;;;23.60;68.40;99572.03;1662485;84;21779;-64
2023/06/19 06:42:58;;;;;;;4.28;3.37;;;;;;;24.04;68.44;99575.89;1664362;84;21104;-64
2023/06/19 06:45:37;;;;;;;3.77;3.00;;;;;;;24.25;67.02;99579.42;1640000;86;21520;-64
2023/06/19 06:48:07;;;;;;;5.50;3.25;;;;;;;24.48;67.00;99577.01;1634551;86;21129;-64
2023/06/19 06:50:49;;;;;;;4.65;3.17;;;;;;;25.14;67.33;99579.98;1648779;84;21122;-64
2023/06/19 06:53:25;;;;;;;3.08;2.77;;;;;;;25.88;66.59;99579.80;1659323;85;21658;-64
2023/06/19 06:55:55;;;;;;;3.50;2.85;;;;;;;26.89;66.75;99580.63;1631001;86;21046;-64
2023/06/19 06:58:29;;;;;;;4.28;3.30;;;;;;;27.67;65.07;99581.98;1661774;84;21014;-64
2023/06/19 07:00:59;;;;;;;3.33;2.50;;;;;;;28.32;63.36;99578.45;1636488;86;21120;-64
2023/06/19 07:03:31;;;;;;;4.58;2.90;;;;;;;28.71;62.89;99584.43;1614434;86;21451;-65
2023/06/19 07:06:10;;;;;;;2.98;2.67;;;;;;;28.85;62.34;99586.20;1643259;86;21110;-64
2023/06/19 07:08:40;;;;;;;3.05;2.75;;;;;;;29.00;60.08;99580.73;1666757;84;21790;-65
2023/06/19 07:11:12;;;;;;;9.55;3.33;;;;;;;28.81;59.53;99585.43;1644220;86;21603;-65
2023/06/19 07:13:50;;;;;;;5.05;3.17;;;;;;;28.75;58.90;99586.52;1665632;84;21117;-66
2023/06/19 07:16:26;;;;;;;3.65;2.85;;;;;;;28.62;58.36;99583.70;1616494;86;21122;-65
2023/06/19 07:19:02;;;;;;;3.30;2.83;;;;;;;28.06;57.49;99587.06;1634135;86;21665;-64
2023/06/19 07:21:35;;;;;;;4.45;2.83;;;;;;;27.62;57.31;99587.09;1639994;86;21113;-64
2023/06/19 07:24:08;;;;;;;3.85;2.70;;;;;;;27.78;57.14;99596.25;1666700;84;21225;-64
2023/06/19 07:26:47;;;;;;;9.35;2.95;;;;;;;28.05;56.77;99589.92;1662156;85;21086;-64
2023/06/19 07:29:23;;;;;;;4.65;2.85;;;;;;;28.31;56.13;99595.56;1657841;84;21659;-64
2023/06/19 07:32:04;;;;;;;;;;;;;;;;;;;;;
2023/06/19 07:34:30;;;;;;;5.65;3.20;;;;;;;28.49;54.96;99603.23;1660974;83;21177;-64
2023/06/19 07:37:07;;;;;;;3.00;2.80;;;;;;;28.63;54.00;99609.56;1639007;85;22457;-64
2023/06/19 07:39:44;;;;;;;3.40;2.85;;;;;;;28.74;53.72;99605.02;1646343;85;21593;-64
2023/06/19 07:42:14;;;;;;;4.05;3.22;;;;;;;29.01;53.35;99603.88;1616161;86;21183;-64
2023/06/19 07:44:41;;;;;;;5.08;3.08;;;;;;;29.25;52.77;99604.52;1604532;87;21612;-64
2023/06/19 07:47:08;;;;;;;4.70;2.98;;;;;;;29.35;52.26;99607.66;1623166;87;21067;-64
2023/06/19 07:49:36;;;;;;;4.45;3.27;;;;;;;29.54;51.79;99620.41;1644270;86;21152;-64
2023/06/19 07:52:05;;;;;;;4.90;2.95;;;;;;;29.57;51.20;99617.31;1643328;86;21038;-64
2023/06/19 07:54:33;;;;;;;2.87;2.65;;;;;;;29.53;50.62;99616.06;1642662;86;21061;-64
2023/06/19 07:57:00;;;;;;;4.47;3.02;;;;;;;29.65;50.20;99617.19;1642162;86;21093;-64
2023/06/19 07:59:26;;;;;;;7.05;3.30;;;;;;;29.59;49.49;99615.27;1643298;86;21110;-64
2023/06/19 08:01:53;;;;;;;25.82;10.35;;;;;;;28.82;48.70;99616.64;1644559;86;21668;-64
2023/06/19 08:04:19;;;;;;;112.42;48.98;;;;;;;28.93;48.74;99622.83;1646195;86;21079;-64
2023/06/19 08:06:45;;;;;;;8.05;4.70;;;;;;;29.08;48.49;99624.97;1642048;86;21027;-65
2023/06/19 08:09:12;;;;;;;154.60;73.30;;;;;;;29.36;48.09;99617.41;1644985;86;21062;-65
2023/06/19 08:11:38;;;;;;;188.45;77.80;;;;;;;29.74;47.90;99617.02;1622073;87;21112;-64
2023/06/19 08:14:05;;;;;;;96.80;39.85;;;;;;;30.19;47.52;99617.41;1623025;87;21148;-64
2023/06/19 08:16:31;;;;;;;43.40;20.52;;;;;;;30.63;47.12;99616.09;1594644;88;21542;-64
2023/06/19 08:18:58;;;;;;;141.25;56.40;;;;;;;31.13;46.84;99613.86;1619861;87;21087;-65
2023/06/19 08:21:24;;;;;;;110.10;47.95;;;;;;;32.14;46.75;99616.10;1618176;87;21869;-64
2023/06/19 08:23:53;;;;;;;438.85;206.23;;;;;;;33.09;46.10;99616.12;1614611;87;21627;-64
2023/06/19 08:26:33;;;;;;;1955.53;762.12;;;;;;;33.83;45.02;99616.19;1612936;87;22450;-64
2023/06/19 08:29:04;;;;;;;349.23;158.47;;;;;;;34.36;45.25;99615.52;1588959;89;21061;-64
2023/06/19 08:34:28;;;;;;;;;;;;;;;;;;;;;
2023/06/19 08:36:55;;;;;;;9.00;3.67;;;;;;;37.32;43.37;99605.10;1480210;94;21263;-65
2023/06/19 08:39:22;;;;;;;4.15;2.77;;;;;;;38.73;41.73;99607.55;1501008;94;22409;-65
2023/06/19 08:41:57;;;;;;;3.92;2.95;;;;;;;39.11;38.82;99622.06;1501235;93;21184;-65
2023/06/19 08:44:38;;;;;;;6.47;3.10;;;;;;;38.63;38.88;99617.03;1508212;93;21184;-65
2023/06/19 08:47:06;;;;;;;11.68;7.33;;;;;;;38.62;38.91;99614.00;1503832;93;21314;-65
2023/06/19 08:49:41;;;;;;;1111.10;579.08;;;;;;;38.80;37.88;99613.62;1490099;93;21126;-65
2023/06/19 08:52:23;;;;;;;22.70;12.13;;;;;;;38.27;37.29;99613.94;1495367;95;22633;-64
2023/06/19 08:54:52;;;;;;;13.00;7.03;;;;;;;37.95;36.10;99613.33;1520040;93;21151;-65
2023/06/19 08:57:25;;;;;;;4.40;3.58;;;;;;;37.41;36.07;99615.84;1480564;95;21781;-67
2023/06/19 08:59:58;;;;;;;17.20;5.22;;;;;;;37.03;35.22;99613.41;1486104;94;22585;-66
2023/06/19 09:02:39;;;;;;;4.67;3.25;;;;;;;36.66;34.88;99613.88;1483882;94;21132;-66
2023/06/19 09:05:18;;;;;;;64.40;47.78;;;;;;;36.27;34.26;99606.91;1518636;93;22541;-66
2023/06/19 09:07:49;;;;;;;5.30;4.28;;;;;;;35.98;34.22;99608.75;1510487;94;21130;-66
2023/06/19 09:10:19;;;;;;;18.02;9.43;;;;;;;36.64;34.30;99605.67;1522316;93;21159;-66
2023/06/19 09:13:06;;;;;;;7.75;3.80;;;;;;;37.90;34.13;99602.34;1640801;85;21097;-66
2023/06/19 09:15:37;;;;;;;4.22;3.27;;;;;;;39.81;33.88;99601.71;1619363;86;21116;-66
2023/06/19 09:18:12;;;;;;;3.77;3.37;;;;;;;41.04;31.67;99596.39;1615712;87;21093;-66
2023/06/19 09:20:47;;;;;;;3.47;3.10;;;;;;;40.43;31.01;99596.40;1604662;87;21655;-67
2023/06/19 09:23:20;;;;;;;7.25;5.03;;;;;;;39.67;30.96;99600.53;1623210;86;22667;-66
2023/06/19 09:26:00;;;;;;;6.50;3.60;;;;;;;39.22;31.04;99591.55;1635982;86;21168;-64
2023/06/19 09:28:31;;;;;;;4.87;3.15;;;;;;;39.94;30.99;99591.34;1635084;86;21990;-64
2023/06/19 09:31:05;;;;;;;7.97;3.33;;;;;;;41.31;30.01;99593.88;1615677;87;21154;-65
2023/06/19 09:33:35;;;;;;;5.35;3.40;;;;;;;41.08;28.70;99586.55;1685391;83;21083;-65
2023/06/19 09:38:41;;;;;;;5.10;3.00;;;;;;;41.05;28.99;99587.07;1687695;83;21047;-65
2023/06/19 09:41:28;;;;;;;3.47;3.05;;;;;;;42.97;28.93;99581.09;1698158;81;21065;-63
2023/06/19 09:44:12;;;;;;;4.92;3.65;;;;;;;44.15;27.07;99586.03;1587021;88;21147;-62
2023/06/19 09:46:44;;;;;;;3.37;2.98;;;;;;;45.01;27.11;99578.27;1593948;88;22430;-62
2023/06/19 09:49:19;;;;;;;3.50;3.08;;;;;;;45.97;26.15;99578.00;1616637;87;21609;-63
2023/06/19 09:51:54;;;;;;;7.20;3.20;;;;;;;46.63;25.53;99572.80;1589986;88;21103;-62
2023/06/19 09:54:27;;;;;;;3.33;3.02;;;;;;;45.83;24.41;99566.97;1616832;87;21101;-62
2023/06/19 09:57:14;;;;;;;5.95;3.52;;;;;;;46.22;24.34;99565.53;1608093;87;21135;-62
2023/06/19 09:59:49;;;;;;;6.05;2.98;;;;;;;46.83;24.45;99568.70;1615205;87;21130;-63
2023/06/19 10:02:22;;;;;;;5.92;2.72;;;;;;;47.74;23.15;99563.91;1601335;87;22320;-63
2023/06/19 10:05:03;;;;;;;7.28;2.70;;;;;;;48.26;22.94;99562.31;1587932;88;21096;-63
2023/06/19 10:07:28;;;;;;;3.35;2.77;;;;;;;48.71;21.72;99559.13;1633201;85;22456;-62
2023/06/19 10:10:07;;;;;;;11.10;3.08;;;;;;;49.22;21.71;99557.33;1614902;87;21116;-66
2023/06/19 10:12:48;;;;;;;3.80;2.90;;;;;;;50.19;20.86;99552.73;1564125;89;21129;-67
2023/06/19 10:15:31;;;;;;;5.30;3.17;;;;;;;51.05;20.76;99551.00;1590792;88;21666;-66
2023/06/19 10:18:09;;;;;;;5.30;2.90;;;;;;;51.83;19.86;99544.88;1596424;88;22555;-69
2023/06/19 10:20:43;;;;;;;4.67;3.00;;;;;;;51.80;18.60;99544.20;1595376;82;21653;-66
2023/06/19 10:23:13;;;;;;;7.80;2.52;;;;;;;52.00;18.83;99547.36;1737182;81;21066;-68
2023/06/19 10:25:47;;;;;;;9.15;2.58;;;;;;;52.51;18.23;99537.84;1783834;80;21095;-69
2023/06/19 10:28:30;;;;;;;3.00;2.67;;;;;;;52.57;17.18;99537.80;1767590;79;21821;-65
2023/06/19 10:31:01;;;;;;;3.00;2.55;;;;;;;52.35;16.75;99537.02;1750197;80;21484;-66
2023/06/19 10:33:33;;;;;;;3.35;2.75;;;;;;;52.41;16.66;99535.61;1717875;81;20999;-67
2023/06/19 10:36:23;;;;;;;4.33;2.98;;;;;;;50.95;15.76;99529.19;1728899;80;21076;-66
2023/06/19 10:38:57;;;;;;;2.77;2.58;;;;;;;47.82;15.51;99536.61;1749126;81;22393;-65
2023/06/19 10:41:29;;;;;;;2.62;2.40;;;;;;;45.31;15.98;99534.70;1695539;82;21669;-66
2023/06/19 10:44:12;;;;;;;4.65;3.37;;;;;;;43.23;16.13;99533.05;1749104;80;21654;-65
2023/06/19 10:46:41;;;;;;;2.98;2.67;;;;;;;41.55;16.24;99527.78;1751747;81;21659;-65
2023/06/19 10:49:19;;;;;;;3.50;2.83;;;;;;;39.85;16.67;99535.58;1705925;82;21644;-65
2023/06/19 10:51:45;;;;;;;3.17;2.60;;;;;;;38.18;17.06;99529.61;1702637;83;21101;-65
2023/06/19 10:54:11;;;;;;;4.37;3.20;;;;;;;36.93;17.57;99531.03;1716585;83;21070;-65
2023/06/19 10:56:37;;;;;;;7.83;3.55;;;;;;;36.19;18.05;99528.48;1723699;82;21104;-65
2023/06/19 10:59:08;;;;;;;13.62;3.45;;;;;;;35.17;18.42;99529.12;1735738;81;21093;-65
2023/06/19 11:01:40;;;;;;;7.05;3.02;;;;;;;34.38;18.72;99532.11;1756395;81;21040;-65
2023/06/19 11:04:08;;;;;;;13.88;3.33;;;;;;;33.13;19.33;99533.45;1726037;81;21518;-65
2023/06/19 11:06:35;;;;;;;4.65;3.08;;;;;;;32.33;19.86;99527.36;1757536;81;21155;-64
2023/06/19 11:09:04;;;;;;;3.17;2.87;;;;;;;31.77;20.50;99532.14;1719620;82;21003;-65
2023/06/19 11:11:39;;;;;;;4.45;2.95;;;;;;;31.23;20.69;99527.97;1744992;81;20982;-65
2023/06/19 11:14:07;;;;;;;5.30;3.62;;;;;;;31.35;21.69;99534.35;1754663;81;20992;-65
2023/06/19 11:16:35;;;;;;;3.30;3.00;;;;;;;31.92;21.83;99527.01;1725855;82;21014;-65
2023/06/19 11:19:03;;;;;;;3.50;2.98;;;;;;;31.59;21.84;99529.30;1726038;82;21561;-66
2023/06/19 11:21:34;;;;;;;3.62;2.98;;;;;;;31.05;22.56;99525.09;1729364;81;20966;-64
2023/06/19 11:24:01;;;;;;;3.92;3.52;;;;;;;30.55;22.54;99531.72;1728876;81;20956;-66
2023/06/19 11:26:28;;;;;;;5.33;3.15;;;;;;;29.80;23.32;99532.80;1754403;80;21019;-65
2023/06/19 11:28:54;;;;;;;4.30;3.35;;;;;;;29.35;23.83;99534.56;1753742;80;20989;-66
2023/06/19 11:31:27;;;;;;;5.97;3.08;;;;;;;30.36;24.41;99528.53;1754109;81;20976;-66
2023/06/19 11:34:02;;;;;;;7.03;3.30;;;;;;;31.78;25.08;99522.98;1756469;81;21053;-68
2023/06/19 11:36:29;;;;;;;12.78;3.50;;;;;;;33.25;24.68;99524.62;1752344;81;21022;-67
2023/06/19 11:38:56;;;;;;;4.65;2.90;;;;;;;34.23;24.37;99529.02;1755422;81;22354;-67
2023/06/19 11:41:29;;;;;;;3.70;3.02;;;;;;;34.03;24.34;99529.26;1724420;82;20982;-65
2023/06/19 11:44:04;;;;;;;3.20;2.90;;;;;;;33.60;24.70;99520.25;1726167;81;20979;-65
2023/06/19 11:46:33;;;;;;;5.37;3.25;;;;;;;33.52;25.03;99520.56;1727044;81;21574;-65
2023/06/19 11:49:16;;;;;;;3.30;3.00;;;;;;;33.29;24.97;99517.17;1753993;80;20951;-65
2023/06/19 11:51:43;;;;;;;5.17;2.90;;;;;;;33.07;25.20;99519.48;1725487;82;20903;-65
2023/06/19 11:54:10;;;;;;;5.20;2.80;;;;;;;32.89;25.08;99519.45;1750349;81;21025;-66